createdAt,value
2023-08-06T00:01:22.298Z,95973.31
2023-08-06T00:03:24.203Z,95976.66
2023-08-06T00:05:25.877Z,95977.59
2023-08-06T00:07:28.094Z,95969.69
2023-08-06T00:09:29.653Z,95973.63
2023-08-06T00:11:35.770Z,95967.91
2023-08-06T00:13:37.369Z,95973.94
2023-08-06T00:15:38.984Z,95965.47
2023-08-06T00:17:40.647Z,95971.03
2023-08-06T00:19:42.505Z,95975.75
2023-08-06T00:21:44.034Z,95971.34
2023-08-06T00:23:46.269Z,95964.22
2023-08-06T00:25:47.870Z,95972.84
2023-08-06T00:27:49.517Z,95966.81
2023-08-06T00:29:51.230Z,95971.03
2023-08-06T00:31:52.961Z,95961.31
2023-08-06T00:33:54.771Z,95963.91
2023-08-06T00:35:56.473Z,95965.91
2023-08-06T00:37:58.075Z,95959.41
2023-08-06T00:39:59.673Z,95953.66
2023-08-06T00:42:01.815Z,95947.56
2023-08-06T00:44:03.926Z,95954.72
2023-08-06T00:46:05.679Z,95948.81
2023-08-06T00:48:08.298Z,95944.56
2023-08-06T00:50:10.113Z,95953.34
2023-08-06T00:52:11.855Z,95953.34
2023-08-06T00:54:14.282Z,95947.44
2023-08-06T00:56:15.835Z,95939.75
2023-08-06T00:58:17.626Z,95940.19
2023-08-06T01:00:21.657Z,95938.38
2023-08-06T01:02:23.333Z,95945.50
2023-08-06T01:04:25.595Z,95938.22
2023-08-06T01:06:44.580Z,95931.31
2023-08-06T01:08:50.930Z,95928.97
2023-08-06T01:11:04.147Z,95923.38
2023-08-06T01:13:29.385Z,95924.28
2023-08-06T01:15:43.535Z,95917.81
2023-08-06T01:17:46.492Z,95913.06
2023-08-06T01:19:48.141Z,95913.97
2023-08-06T01:21:49.927Z,95912.28
2023-08-06T01:23:53.086Z,95917.59
2023-08-06T01:26:03.592Z,95905.34
2023-08-06T01:28:33.966Z,95908.84
2023-08-06T01:30:39.956Z,95900.66
2023-08-06T01:32:46.460Z,95900.56
2023-08-06T01:34:49.874Z,95889.53
2023-08-06T01:36:53.600Z,95890.84
2023-08-06T01:38:55.498Z,95885.75
2023-08-06T01:40:57.027Z,95891.03
2023-08-06T01:42:58.818Z,95894.22
2023-08-06T01:45:00.430Z,95894.97
2023-08-06T01:47:02.433Z,95889.56
2023-08-06T01:49:04.001Z,95881.25
2023-08-06T01:51:06.902Z,95889.13
2023-08-06T01:53:08.590Z,95885.63
2023-08-06T01:55:10.100Z,95885.91
2023-08-06T01:57:12.764Z,95873.81
2023-08-06T01:59:14.813Z,95869.19
2023-08-06T02:01:16.693Z,95870.25
2023-08-06T02:03:18.302Z,95863.22
2023-08-06T02:05:19.896Z,95862.34
2023-08-06T02:07:21.429Z,95851.22
2023-08-06T02:09:23.133Z,95861.66
2023-08-06T02:11:24.666Z,95847.75
2023-08-06T02:13:26.476Z,95842.78
2023-08-06T02:15:28.043Z,95850.25
2023-08-06T02:17:29.609Z,95841.06
2023-08-06T02:19:31.173Z,95846.50
2023-08-06T02:21:32.740Z,95843.78
2023-08-06T02:23:34.342Z,95850.72
2023-08-06T02:25:36.608Z,95845.84
2023-08-06T02:27:38.687Z,95839.81
2023-08-06T02:29:42.461Z,95841.47
2023-08-06T02:31:44.122Z,95845.41
2023-08-06T02:33:45.710Z,95831.34
2023-08-06T02:35:47.297Z,95831.31
2023-08-06T02:37:48.870Z,95825.88
2023-08-06T02:39:50.409Z,95826.50
2023-08-06T02:41:52.374Z,95828.41
2023-08-06T02:43:54.534Z,95825.44
2023-08-06T02:46:00.937Z,95822.16
2023-08-06T02:48:03.573Z,95820.94
2023-08-06T02:50:05.933Z,95821.56
2023-08-06T02:52:08.007Z,95815.56
2023-08-06T02:54:09.732Z,95813.31
2023-08-06T02:56:11.934Z,95817.78
2023-08-06T02:58:25.537Z,95810.09
2023-08-06T03:00:38.189Z,95805.38
2023-08-06T03:02:41.955Z,95805.63
2023-08-06T03:04:56.125Z,95800.28
2023-08-06T03:07:01.467Z,95801.06
2023-08-06T03:09:11.280Z,95802.41
2023-08-06T03:11:12.950Z,95799.56
2023-08-06T03:13:16.319Z,95799.38
2023-08-06T03:15:18.059Z,95798.75
2023-08-06T03:17:21.524Z,95792.50
2023-08-06T03:19:23.493Z,95792.22
2023-08-06T03:21:25.919Z,95791.09
2023-08-06T03:23:28.116Z,95787.28
2023-08-06T03:25:29.746Z,95788.69
2023-08-06T03:27:31.358Z,95781.72
2023-08-06T03:29:33.023Z,95788.50
2023-08-06T03:31:36.745Z,95788.22
2023-08-06T03:33:39.219Z,95785.78
2023-08-06T03:35:45.356Z,95778.72
2023-08-06T03:37:47.177Z,95782.06
2023-08-06T03:39:48.987Z,95783.88
2023-08-06T03:41:51.258Z,95778.28
2023-08-06T03:43:53.264Z,95781.72
2023-08-06T03:46:00.210Z,95783.53
2023-08-06T03:48:01.897Z,95781.25
2023-08-06T03:50:03.857Z,95782.25
2023-08-06T03:52:06.242Z,95783.47
2023-08-06T03:54:07.861Z,95772.97
2023-08-06T03:56:09.847Z,95773.44
2023-08-06T03:58:11.410Z,95765.59
2023-08-06T04:00:13.661Z,95772.97
2023-08-06T04:02:23.303Z,95761.72
2023-08-06T04:04:25.308Z,95758.22
2023-08-06T04:06:27.077Z,95755.16
2023-08-06T04:08:28.621Z,95752.50
2023-08-06T04:10:30.197Z,95751.78
2023-08-06T04:12:32.490Z,95750.00
2023-08-06T04:14:34.042Z,95759.56
2023-08-06T04:16:35.653Z,95750.06
2023-08-06T04:18:37.366Z,95750.97
2023-08-06T04:20:46.236Z,95754.25
2023-08-06T04:22:47.833Z,95747.19
2023-08-06T04:24:49.823Z,95743.88
2023-08-06T04:26:51.418Z,95744.78
2023-08-06T04:28:52.975Z,95748.09
2023-08-06T04:30:55.114Z,95747.50
2023-08-06T04:32:58.899Z,95748.09
2023-08-06T04:35:01.379Z,95748.13
2023-08-06T04:37:04.278Z,95752.94
2023-08-06T04:39:05.855Z,95750.50
2023-08-06T04:41:07.468Z,95743.22
2023-08-06T04:43:10.386Z,95741.44
2023-08-06T04:45:12.098Z,95743.22
2023-08-06T04:47:14.308Z,95735.19
2023-08-06T04:49:17.391Z,95731.81
2023-08-06T04:51:18.960Z,95728.06
2023-08-06T04:53:20.771Z,95738.81
2023-08-06T04:55:22.738Z,95739.13
2023-08-06T04:57:24.716Z,95735.00
2023-08-06T04:59:26.470Z,95728.81
2023-08-06T05:01:28.101Z,95736.53
2023-08-06T05:03:30.045Z,95730.44
2023-08-06T05:05:31.578Z,95731.78
2023-08-06T05:07:33.162Z,95736.47
2023-08-06T05:09:34.769Z,95740.50
2023-08-06T05:11:37.245Z,95730.97
2023-08-06T05:13:38.967Z,95725.53
2023-08-06T05:15:43.940Z,95733.03
2023-08-06T05:17:45.726Z,95725.09
2023-08-06T05:19:47.341Z,95732.34
2023-08-06T05:21:48.894Z,95722.81
2023-08-06T05:23:50.477Z,95730.25
2023-08-06T05:25:52.119Z,95735.25
2023-08-06T05:27:54.302Z,95738.66
2023-08-06T05:29:57.275Z,95735.16
2023-08-06T05:31:59.154Z,95742.03
2023-08-06T05:34:00.726Z,95733.88
2023-08-06T05:36:02.283Z,95736.97
2023-08-06T05:38:03.817Z,95733.19
2023-08-06T05:40:05.834Z,95730.91
2023-08-06T05:42:08.008Z,95732.97
2023-08-06T05:44:09.511Z,95726.75
2023-08-06T05:46:11.173Z,95722.63
2023-08-06T05:48:13.409Z,95722.88
2023-08-06T05:50:14.958Z,95734.03
2023-08-06T05:52:17.176Z,95728.13
2023-08-06T05:54:18.688Z,95738.19
2023-08-06T05:56:20.251Z,95745.53
2023-08-06T05:58:21.882Z,95739.88
2023-08-06T06:00:24.060Z,95747.22
2023-08-06T06:02:25.626Z,95735.75
2023-08-06T06:04:27.278Z,95739.06
2023-08-06T06:06:28.806Z,95732.91
2023-08-06T06:08:31.917Z,95724.06
2023-08-06T06:10:33.749Z,95729.25
2023-08-06T06:12:35.332Z,95730.34
2023-08-06T06:14:36.929Z,95725.97
2023-08-06T06:16:38.498Z,95738.47
2023-08-06T06:18:40.694Z,95743.56
2023-08-06T06:20:42.206Z,95745.97
2023-08-06T06:22:44.019Z,95745.19
2023-08-06T06:24:45.657Z,95743.63
2023-08-06T06:26:47.199Z,95747.28
2023-08-06T06:28:48.798Z,95743.47
2023-08-06T06:30:51.272Z,95742.75
2023-08-06T06:32:53.281Z,95746.22
2023-08-06T06:34:55.439Z,95745.47
2023-08-06T06:36:57.371Z,95748.13
2023-08-06T06:38:58.889Z,95742.06
2023-08-06T06:41:00.899Z,95743.28
2023-08-06T06:43:02.478Z,95740.72
2023-08-06T06:45:04.264Z,95749.16
2023-08-06T06:47:05.999Z,95752.03
2023-08-06T06:49:07.675Z,95749.66
2023-08-06T06:51:09.748Z,95748.72
2023-08-06T06:53:11.396Z,95741.31
2023-08-06T06:55:12.917Z,95744.91
2023-08-06T06:57:14.497Z,95747.63
2023-08-06T06:59:16.101Z,95734.63
2023-08-06T07:01:17.757Z,95734.09
2023-08-06T07:03:21.308Z,95732.06
2023-08-06T07:05:23.225Z,95744.44
2023-08-06T07:07:24.908Z,95740.31
2023-08-06T07:09:26.806Z,95736.88
2023-08-06T07:11:28.402Z,95742.66
2023-08-06T07:13:30.844Z,95735.22
2023-08-06T07:15:32.755Z,95738.06
2023-08-06T07:17:34.331Z,95740.28
2023-08-06T07:19:35.910Z,95741.78
2023-08-06T07:21:37.523Z,95735.09
2023-08-06T07:23:39.171Z,95737.44
2023-08-06T07:25:40.694Z,95743.50
2023-08-06T07:27:42.470Z,95742.47
2023-08-06T07:29:44.018Z,95745.28
2023-08-06T07:31:45.516Z,95738.03
2023-08-06T07:33:47.779Z,95735.06
2023-08-06T07:35:49.385Z,95730.84
2023-08-06T07:37:50.935Z,95733.63
2023-08-06T07:39:52.435Z,95727.84
2023-08-06T07:41:54.551Z,95746.94
2023-08-06T07:43:56.319Z,95733.03
2023-08-06T07:46:01.878Z,95741.63
2023-08-06T07:48:04.257Z,95738.06
2023-08-06T07:50:06.139Z,95733.28
2023-08-06T07:52:08.165Z,95734.97
2023-08-06T07:54:10.104Z,95729.31
2023-08-06T07:56:11.790Z,95723.88
2023-08-06T07:58:13.350Z,95733.47
2023-08-06T08:00:15.179Z,95725.88
2023-08-06T08:02:16.944Z,95732.75
2023-08-06T08:04:20.046Z,95735.06
2023-08-06T08:06:24.096Z,95725.81
2023-08-06T08:08:25.971Z,95731.66
2023-08-06T08:10:27.512Z,95723.31
2023-08-06T08:12:29.263Z,95733.75
2023-08-06T08:14:36.379Z,95726.50
2023-08-06T08:16:38.406Z,95720.69
2023-08-06T08:18:40.087Z,95724.88
2023-08-06T08:20:41.635Z,95722.47
2023-08-06T08:22:43.211Z,95728.34
2023-08-06T08:24:45.147Z,95718.72
2023-08-06T08:26:46.663Z,95725.78
2023-08-06T08:28:48.211Z,95725.22
2023-08-06T08:30:49.764Z,95722.50
2023-08-06T08:32:51.886Z,95720.72
2023-08-06T08:34:53.712Z,95725.69
2023-08-06T08:36:55.258Z,95730.97
2023-08-06T08:38:57.806Z,95738.25
2023-08-06T08:40:59.348Z,95730.97
2023-08-06T08:43:01.070Z,95727.91
2023-08-06T08:45:05.102Z,95728.19
2023-08-06T08:47:09.559Z,95722.13
2023-08-06T08:49:12.403Z,95718.41
2023-08-06T08:51:14.270Z,95723.97
2023-08-06T08:53:17.325Z,95726.69
2023-08-06T08:55:19.145Z,95720.31
2023-08-06T08:57:21.720Z,95716.50
2023-08-06T08:59:24.514Z,95720.13
2023-08-06T09:01:27.361Z,95720.69
2023-08-06T09:03:29.483Z,95725.06
2023-08-06T09:05:34.592Z,95726.69
2023-08-06T09:07:48.015Z,95729.16
2023-08-06T09:09:50.712Z,95728.28
2023-08-06T09:11:53.765Z,95727.06
2023-08-06T09:13:56.532Z,95731.44
2023-08-06T09:15:58.126Z,95732.75
2023-08-06T09:18:00.242Z,95739.34
2023-08-06T09:20:10.986Z,95733.66
2023-08-06T09:22:14.804Z,95724.28
2023-08-06T09:24:16.689Z,95727.56
2023-08-06T09:26:18.188Z,95723.66
2023-08-06T09:28:19.709Z,95727.50
2023-08-06T09:30:35.156Z,95721.84
2023-08-06T09:32:49.030Z,95729.94
2023-08-06T09:34:57.009Z,95733.13
2023-08-06T09:36:58.578Z,95730.44
2023-08-06T09:39:00.148Z,95736.84
2023-08-06T09:41:01.734Z,95729.88
2023-08-06T09:43:06.432Z,95731.31
2023-08-06T09:45:08.424Z,95729.84
2023-08-06T09:47:09.962Z,95739.03
2023-08-06T09:49:11.541Z,95725.78
2023-08-06T09:51:14.630Z,95733.44
2023-08-06T09:53:16.646Z,95732.88
2023-08-06T09:55:20.693Z,95722.72
2023-08-06T09:57:26.104Z,95726.91
2023-08-06T09:59:27.998Z,95721.38
2023-08-06T10:01:29.737Z,95720.72
2023-08-06T10:03:32.145Z,95718.44
2023-08-06T10:05:34.551Z,95713.25
2023-08-06T10:07:37.043Z,95707.38
2023-08-06T10:09:39.264Z,95718.44
2023-08-06T10:11:41.138Z,95705.00
2023-08-06T10:13:42.823Z,95711.59
2023-08-06T10:15:44.801Z,95711.53
2023-08-06T10:17:51.243Z,95709.44
2023-08-06T10:19:56.264Z,95723.22
2023-08-06T10:22:18.295Z,95714.75
2023-08-06T10:24:20.163Z,95711.75
2023-08-06T10:26:26.051Z,95707.16
2023-08-06T10:28:39.073Z,95697.63
2023-08-06T10:30:46.438Z,95698.34
2023-08-06T10:32:50.373Z,95709.59
2023-08-06T10:34:59.240Z,95698.56
2023-08-06T10:37:02.303Z,95693.88
2023-08-06T10:39:05.269Z,95709.53
2023-08-06T10:41:06.809Z,95699.84
2023-08-06T10:43:10.413Z,95696.41
2023-08-06T10:45:16.612Z,95692.06
2023-08-06T10:47:27.866Z,95699.63
2023-08-06T10:49:29.737Z,95695.03
2023-08-06T10:51:31.745Z,95697.66
2023-08-06T10:53:34.592Z,95688.31
2023-08-06T10:55:38.181Z,95690.59
2023-08-06T10:57:39.952Z,95685.81
2023-08-06T10:59:43.971Z,95687.31
2023-08-06T11:01:47.163Z,95680.09
2023-08-06T11:03:51.882Z,95693.34
2023-08-06T11:05:53.467Z,95686.78
2023-08-06T11:07:54.998Z,95698.75
2023-08-06T11:10:03.470Z,95686.41
2023-08-06T11:12:11.130Z,95690.09
2023-08-06T11:14:16.469Z,95696.03
2023-08-06T11:16:24.410Z,95707.13
2023-08-06T11:18:26.279Z,95710.69
2023-08-06T11:20:27.798Z,95701.41
2023-08-06T11:22:29.446Z,95706.09
2023-08-06T11:24:31.793Z,95700.31
2023-08-06T11:26:33.532Z,95706.44
2023-08-06T11:28:35.512Z,95698.19
2023-08-06T11:30:39.226Z,95700.38
2023-08-06T11:32:50.731Z,95702.19
2023-08-06T11:34:56.385Z,95700.53
2023-08-06T11:36:58.330Z,95704.19
2023-08-06T11:39:01.392Z,95696.84
2023-08-06T11:41:03.496Z,95703.16
2023-08-06T11:43:07.015Z,95704.81
2023-08-06T11:45:10.584Z,95708.59
2023-08-06T11:47:19.221Z,95707.47
2023-08-06T11:49:22.533Z,95709.75
2023-08-06T11:51:27.886Z,95701.66
2023-08-06T11:53:30.243Z,95704.56
2023-08-06T11:55:32.352Z,95700.16
2023-08-06T11:57:36.336Z,95690.00
2023-08-06T11:59:40.177Z,95699.06
2023-08-06T12:01:42.146Z,95693.44
2023-08-06T12:03:44.176Z,95697.16
2023-08-06T12:05:47.791Z,95695.13
2023-08-06T12:07:51.390Z,95700.00
2023-08-06T12:09:53.004Z,95706.47
2023-08-06T12:11:54.686Z,95712.66
2023-08-06T12:13:57.853Z,95707.31
2023-08-06T12:15:59.395Z,95707.88
2023-08-06T12:18:01.187Z,95706.22
2023-08-06T12:20:07.588Z,95698.00
2023-08-06T12:22:09.758Z,95701.13
2023-08-06T12:24:11.583Z,95697.00
2023-08-06T12:26:13.242Z,95703.75
2023-08-06T12:28:14.752Z,95708.91
2023-08-06T12:30:16.760Z,95706.09
2023-08-06T12:32:18.315Z,95716.28
2023-08-06T12:34:21.359Z,95710.31
2023-08-06T12:36:25.910Z,95706.13
2023-08-06T12:38:28.263Z,95699.47
2023-08-06T12:40:37.175Z,95698.03
2023-08-06T12:42:40.319Z,95699.16
2023-08-06T12:44:42.136Z,95699.59
2023-08-06T12:46:43.770Z,95709.44
2023-08-06T12:48:45.490Z,95720.84
2023-08-06T12:50:47.327Z,95720.13
2023-08-06T12:52:49.587Z,95733.47
2023-08-06T12:54:51.164Z,95743.75
2023-08-06T12:56:53.220Z,95747.28
2023-08-06T12:58:54.843Z,95764.03
2023-08-06T13:00:57.195Z,95761.19
2023-08-06T13:02:58.890Z,95769.22
2023-08-06T13:05:00.871Z,95756.97
2023-08-06T13:07:02.488Z,95760.78
2023-08-06T13:09:04.988Z,95777.22
2023-08-06T13:11:06.848Z,95775.53
2023-08-06T13:13:08.431Z,95777.47
2023-08-06T13:15:10.719Z,95789.00
2023-08-06T13:17:12.392Z,95790.06
2023-08-06T13:19:14.474Z,95792.44
2023-08-06T13:21:16.195Z,95784.72
2023-08-06T13:23:17.798Z,95802.19
2023-08-06T13:25:20.259Z,95814.03
2023-08-06T13:27:22.058Z,95800.16
2023-08-06T13:29:23.620Z,95808.31
2023-08-06T13:31:25.849Z,95818.78
2023-08-06T13:33:27.831Z,95824.34
2023-08-06T13:35:29.340Z,95818.16
2023-08-06T13:37:30.941Z,95840.06
2023-08-06T13:39:32.642Z,95830.59
2023-08-06T13:41:35.311Z,95833.31
2023-08-06T13:43:36.847Z,95829.88
2023-08-06T13:45:39.168Z,95825.97
2023-08-06T13:47:40.746Z,95844.97
2023-08-06T13:49:42.280Z,95842.41
2023-08-06T13:51:43.995Z,95842.56
2023-08-06T13:53:46.170Z,95842.56
2023-08-06T13:55:47.755Z,95837.28
2023-08-06T13:57:49.267Z,95854.00
2023-08-06T13:59:51.623Z,95850.13
2023-08-06T14:01:56.331Z,95856.13
2023-08-06T14:03:58.443Z,95846.19
2023-08-06T14:06:00.098Z,95858.84
2023-08-06T14:08:01.801Z,95855.69
2023-08-06T14:10:03.644Z,95848.44
2023-08-06T14:12:06.556Z,95861.28
2023-08-06T14:14:09.034Z,95860.69
2023-08-06T14:16:10.775Z,95867.44
2023-08-06T14:18:12.456Z,95854.94
2023-08-06T14:20:14.328Z,95857.03
2023-08-06T14:22:15.875Z,95873.81
2023-08-06T14:24:17.430Z,95875.59
2023-08-06T14:26:19.259Z,95889.63
2023-08-06T14:28:20.775Z,95884.78
2023-08-06T14:30:22.436Z,95884.97
2023-08-06T14:32:24.126Z,95879.97
2023-08-06T14:34:26.205Z,95895.22
2023-08-06T14:36:27.845Z,95889.63
2023-08-06T14:38:29.327Z,95890.22
2023-08-06T14:40:35.645Z,95903.34
2023-08-06T14:42:37.481Z,95902.28
2023-08-06T14:44:39.482Z,95897.78
2023-08-06T14:46:42.292Z,95909.38
2023-08-06T14:48:43.917Z,95906.81
2023-08-06T14:50:45.541Z,95931.13
2023-08-06T14:52:47.118Z,95917.97
2023-08-06T14:54:48.740Z,95916.97
2023-08-06T14:56:50.352Z,95921.31
2023-08-06T14:58:52.072Z,95922.22
2023-08-06T15:00:55.062Z,95928.25
2023-08-06T15:02:56.687Z,95929.59
2023-08-06T15:04:58.379Z,95921.16
2023-08-06T15:06:59.973Z,95935.03
2023-08-06T15:09:02.099Z,95929.44
2023-08-06T15:11:04.246Z,95934.72
2023-08-06T15:13:05.996Z,95931.25
2023-08-06T15:15:09.348Z,95941.94
2023-08-06T15:17:11.129Z,95936.38
2023-08-06T15:19:12.985Z,95940.44
2023-08-06T15:21:14.540Z,95959.56
2023-08-06T15:23:16.057Z,95955.69
2023-08-06T15:25:17.626Z,95947.53
2023-08-06T15:27:19.466Z,95954.31
2023-08-06T15:29:22.043Z,95958.13
2023-08-06T15:31:23.702Z,95950.56
2023-08-06T15:33:25.672Z,95956.28
2023-08-06T15:35:27.844Z,95960.81
2023-08-06T15:37:30.998Z,95960.94
2023-08-06T15:39:32.987Z,95960.22
2023-08-06T15:41:34.590Z,95954.19
2023-08-06T15:43:36.326Z,95967.16
2023-08-06T15:45:38.197Z,95972.13
2023-08-06T15:47:41.459Z,95972.47
2023-08-06T15:49:43.311Z,95973.47
2023-08-06T15:51:45.184Z,95973.47
2023-08-06T15:53:46.872Z,95982.38
2023-08-06T15:55:48.594Z,95983.13
2023-08-06T15:57:50.328Z,95988.25
2023-08-06T15:59:51.890Z,95981.63
2023-08-06T16:01:54.610Z,95985.53
2023-08-06T16:03:56.242Z,96022.31
2023-08-06T16:05:57.887Z,95988.38
2023-08-06T16:08:00.102Z,95999.78
2023-08-06T16:10:02.298Z,96009.31
2023-08-06T16:12:04.830Z,96007.81
2023-08-06T16:14:06.774Z,96006.03
2023-08-06T16:16:08.350Z,96010.97
2023-08-06T16:18:10.024Z,96018.50
2023-08-06T16:20:13.049Z,96014.75
2023-08-06T16:22:14.626Z,96008.41
2023-08-06T16:24:16.212Z,96019.72
2023-08-06T16:26:18.097Z,96009.03
2023-08-06T16:28:19.991Z,96024.72
2023-08-06T16:30:21.542Z,96017.97
2023-08-06T16:32:23.242Z,96028.66
2023-08-06T16:34:25.013Z,96017.97
2023-08-06T16:36:26.764Z,96021.75
2023-08-06T16:38:28.511Z,96018.16
2023-08-06T16:40:30.176Z,96018.03
2023-08-06T16:42:31.853Z,96022.75
2023-08-06T16:44:33.470Z,96021.06
2023-08-06T16:46:35.381Z,96025.56
2023-08-06T16:48:37.249Z,96041.03
2023-08-06T16:50:39.016Z,96034.00
2023-08-06T16:52:40.713Z,96041.84
2023-08-06T16:54:42.265Z,96047.63
2023-08-06T16:56:43.844Z,96052.94
2023-08-06T16:58:45.336Z,96051.75
2023-08-06T17:00:47.994Z,96050.94
2023-08-06T17:02:51.884Z,96050.66
2023-08-06T17:04:54.384Z,96054.78
2023-08-06T17:06:57.493Z,96056.28
2023-08-06T17:08:59.578Z,96053.38
2023-08-06T17:11:03.378Z,96071.25
2023-08-06T17:13:14.346Z,96060.69
2023-08-06T17:15:22.882Z,96066.00
2023-08-06T17:17:24.456Z,96066.31
2023-08-06T17:19:25.989Z,96089.84
2023-08-06T17:21:27.808Z,96062.97
2023-08-06T17:23:29.448Z,96068.91
2023-08-06T17:25:32.121Z,96070.59
2023-08-06T17:27:34.564Z,96080.25
2023-08-06T17:29:37.078Z,96070.69
2023-08-06T17:31:38.713Z,96080.84
2023-08-06T17:33:40.512Z,96076.81
2023-08-06T17:35:43.815Z,96076.56
2023-08-06T17:37:45.422Z,96072.50
2023-08-06T17:39:46.988Z,96077.19
2023-08-06T17:41:48.878Z,96072.38
2023-08-06T17:43:50.462Z,96067.84
2023-08-06T17:45:52.017Z,96071.44
2023-08-06T17:47:53.671Z,96071.88
2023-08-06T17:49:55.196Z,96067.84
2023-08-06T17:51:56.721Z,96070.09
2023-08-06T17:53:58.497Z,96080.00
2023-08-06T17:56:01.868Z,96069.78
2023-08-06T17:58:03.784Z,96066.16
2023-08-06T18:00:06.889Z,96074.16
2023-08-06T18:02:14.768Z,96072.19
2023-08-06T18:04:16.370Z,96079.13
2023-08-06T18:06:17.930Z,96066.72
2023-08-06T18:08:19.505Z,96070.88
2023-08-06T18:10:21.352Z,96073.78
2023-08-06T18:12:22.947Z,96070.19
2023-08-06T18:14:24.589Z,96092.66
2023-08-06T18:16:26.169Z,96091.38
2023-08-06T18:18:27.732Z,96088.09
2023-08-06T18:20:30.942Z,96080.66
2023-08-06T18:22:32.520Z,96103.44
2023-08-06T18:24:34.649Z,96106.41
2023-08-06T18:26:36.281Z,96107.03
2023-08-06T18:28:37.843Z,96103.94
2023-08-06T18:30:41.220Z,96103.69
2023-08-06T18:32:43.007Z,96107.84
2023-08-06T18:34:44.634Z,96090.50
2023-08-06T18:36:46.672Z,96105.72
2023-08-06T18:38:51.294Z,96110.50
2023-08-06T18:40:59.948Z,96106.50
2023-08-06T18:43:01.697Z,96105.00
2023-08-06T18:45:03.405Z,96100.19
2023-08-06T18:47:05.768Z,96100.53
2023-08-06T18:49:07.387Z,96105.81
2023-08-06T18:51:09.156Z,96110.22
2023-08-06T18:53:10.968Z,96106.00
2023-08-06T18:55:12.580Z,96110.22
2023-08-06T18:57:14.182Z,96111.75
2023-08-06T18:59:21.269Z,96112.00
2023-08-06T19:01:23.211Z,96107.78
2023-08-06T19:03:25.601Z,96111.38
2023-08-06T19:05:27.689Z,96115.78
2023-08-06T19:07:29.527Z,96114.16
2023-08-06T19:09:31.217Z,96115.03
2023-08-06T19:11:32.872Z,96117.28
2023-08-06T19:13:34.820Z,96116.75
2023-08-06T19:15:36.908Z,96107.31
2023-08-06T19:17:38.514Z,96127.06
2023-08-06T19:19:44.490Z,96118.63
2023-08-06T19:21:49.877Z,96113.22
2023-08-06T19:23:51.662Z,96120.44
2023-08-06T19:25:53.369Z,96125.00
2023-08-06T19:27:54.958Z,96128.13
2023-08-06T19:29:56.624Z,96123.59
2023-08-06T19:32:05.722Z,96130.56
2023-08-06T19:34:08.140Z,96125.19
2023-08-06T19:36:09.736Z,96122.03
2023-08-06T19:38:11.832Z,96133.22
2023-08-06T19:40:14.954Z,96125.81
2023-08-06T19:42:16.579Z,96124.44
2023-08-06T19:44:18.161Z,96120.50
2023-08-06T19:46:19.772Z,96131.28
2023-08-06T19:48:21.681Z,96131.88
2023-08-06T19:50:23.849Z,96131.88
2023-08-06T19:52:25.415Z,96135.84
2023-08-06T19:54:27.199Z,96139.19
2023-08-06T19:56:29.952Z,96138.44
2023-08-06T19:58:33.754Z,96146.50
2023-08-06T20:00:35.569Z,96144.41
2023-08-06T20:02:37.340Z,96146.81
2023-08-06T20:04:38.954Z,96142.72
2023-08-06T20:06:42.502Z,96144.97
2023-08-06T20:08:44.043Z,96142.84
2023-08-06T20:10:50.109Z,96132.31
2023-08-06T20:12:52.100Z,96121.00
2023-08-06T20:14:54.066Z,96140.81
2023-08-06T20:16:55.593Z,96144.38
2023-08-06T20:18:57.185Z,96136.13
2023-08-06T20:25:49.774Z,96155.66
2023-08-06T20:27:51.424Z,96134.41
2023-08-06T20:29:52.999Z,96142.78
2023-08-06T20:31:55.667Z,96120.78
2023-08-06T20:33:57.732Z,96131.06
2023-08-06T20:35:59.339Z,96124.03
2023-08-06T20:38:00.944Z,96123.19
2023-08-06T20:40:03.964Z,96116.13
2023-08-06T20:42:05.873Z,96117.09
2023-08-06T20:44:07.450Z,96123.78
2023-08-06T20:46:09.140Z,96132.34
2023-08-06T20:48:11.233Z,96125.00
2023-08-06T20:50:12.842Z,96130.53
2023-08-06T20:52:14.470Z,96126.97
2023-08-06T20:54:16.190Z,96119.47
2023-08-06T20:56:19.168Z,96119.22
2023-08-06T20:58:20.766Z,96128.59
2023-08-06T21:00:22.798Z,96136.06
2023-08-06T21:02:26.169Z,96141.78
2023-08-06T21:04:27.747Z,96149.41
2023-08-06T21:06:29.317Z,96147.91
2023-08-06T21:08:32.059Z,96146.94
2023-08-06T21:10:34.916Z,96151.34
2023-08-06T21:12:36.418Z,96145.38
2023-08-06T21:14:38.015Z,96150.59
2023-08-06T21:16:41.661Z,96155.91
2023-08-06T21:18:44.041Z,96148.09
2023-08-06T21:20:45.596Z,96148.53
2023-08-06T21:22:47.112Z,96142.78
2023-08-06T21:24:50.700Z,96145.81
2023-08-06T21:26:52.491Z,96138.44
2023-08-06T21:28:54.027Z,96139.00
2023-08-06T21:31:06.959Z,96139.78
2023-08-06T21:33:08.538Z,96137.28
2023-08-06T21:35:11.751Z,96158.19
2023-08-06T21:37:13.497Z,96160.69
2023-08-06T21:39:15.032Z,96162.78
2023-08-06T21:41:17.477Z,96151.94
2023-08-06T21:43:18.970Z,96164.28
2023-08-06T21:45:20.507Z,96165.69
2023-08-06T21:47:22.101Z,96158.75
2023-08-06T21:49:24.969Z,96172.19
2023-08-06T21:51:27.955Z,96154.72
2023-08-06T21:53:30.837Z,96152.81
2023-08-06T21:55:35.537Z,96164.50
2023-08-06T21:57:37.058Z,96166.56
2023-08-06T21:59:38.597Z,96162.44
2023-08-06T22:01:40.251Z,96164.72
2023-08-06T22:03:44.192Z,96159.41
2023-08-06T22:05:45.892Z,96159.22
2023-08-06T22:07:47.432Z,96160.84
2023-08-06T22:09:48.961Z,96168.84
2023-08-06T22:11:50.947Z,96163.63
2023-08-06T22:13:52.873Z,96173.91
2023-08-06T22:15:54.616Z,96160.38
2023-08-06T22:17:56.241Z,96165.91
2023-08-06T22:19:58.951Z,96161.78
2023-08-06T22:22:00.503Z,96168.41
2023-08-06T22:24:02.568Z,96162.78
2023-08-06T22:26:04.116Z,96177.19
2023-08-06T22:28:06.040Z,96173.28
2023-08-06T22:30:08.201Z,96185.75
2023-08-06T22:32:09.847Z,96174.69
2023-08-06T22:34:11.550Z,96176.63
2023-08-06T22:36:13.129Z,96188.44
2023-08-06T22:38:14.845Z,96200.69
2023-08-06T22:40:18.102Z,96184.22
2023-08-06T22:42:19.653Z,96196.06
2023-08-06T22:44:21.656Z,96202.78
2023-08-06T22:46:23.349Z,96192.88
2023-08-06T22:48:24.919Z,96202.00
2023-08-06T22:50:26.511Z,96211.22
2023-08-06T22:52:28.076Z,96212.31
2023-08-06T22:54:29.613Z,96212.53
2023-08-06T22:56:31.402Z,96208.28
2023-08-06T22:58:33.091Z,96213.81
2023-08-06T23:00:34.686Z,96229.84
2023-08-06T23:02:38.428Z,96214.47
2023-08-06T23:04:40.167Z,96223.78
2023-08-06T23:06:41.773Z,96227.81
2023-08-06T23:08:43.472Z,96222.47
2023-08-06T23:10:45.177Z,96227.69
2023-08-06T23:12:46.685Z,96235.72
2023-08-06T23:14:48.919Z,96239.72
2023-08-06T23:16:51.103Z,96232.88
2023-08-06T23:18:53.439Z,96232.34
2023-08-06T23:20:54.956Z,96230.94
2023-08-06T23:22:56.884Z,96237.97
2023-08-06T23:24:58.416Z,96249.91
2023-08-06T23:27:01.564Z,96245.25
2023-08-06T23:29:03.178Z,96252.59
2023-08-06T23:31:04.747Z,96246.84
2023-08-06T23:33:06.397Z,96243.63
2023-08-06T23:35:09.384Z,96255.31
2023-08-06T23:37:11.120Z,96251.09
2023-08-06T23:39:13.012Z,96252.06
2023-08-06T23:41:15.095Z,96259.44
2023-08-06T23:43:16.784Z,96248.81
2023-08-06T23:45:18.322Z,96254.03
2023-08-06T23:47:19.841Z,96251.31
2023-08-06T23:49:21.840Z,96252.94
2023-08-06T23:51:23.404Z,96263.78
2023-08-06T23:53:25.252Z,96265.16
2023-08-06T23:55:26.808Z,96264.31
2023-08-06T23:57:28.528Z,96261.59
2023-08-06T23:59:30.156Z,96264.50
